Danville Regional Airport
KDAN : now visible

Airfield :











YOU CAN JOIN US ON...

 
LOGIN :

Register | Disclaimer

   EN    FR    IT 

 









Legend :    VFR   Marginal VFR   IFR   Intensive IFR   Very Intensive IFR
Visi :
Ceiling :
>= 8 km
>= 3000ft
5 to 8 km
1000 to 3000 ft
1500m to 5 km
500 to 1000 ft
800 to 1500m
200 to 500 ft
< 800m
< 200 ft
Symbols :   Thunderstorms  Fog  Heavy snow  Heavy precipitations  Wind > 20 kt






- Airport Elevation : 571 ft
- IATA code : DAN


KDAN - Danville Regional

CURRENT METAR :
  • 091443Z AUTO 05007KT 030V100 10SM BKN016 BKN036 26/22 A2997 RMK AO2 T02610217

EXPIRED METARs :
  • 091353Z AUTO 06009KT 10SM BKN012 26/22 A2998 RMK AO2 SLP139 T02560217
  • 091342Z AUTO 03007KT 10SM BKN011 BKN014 25/22 A2998 RMK AO2 CIG 008V013 T02500222
  • 091253Z AUTO 04007KT 10SM OVC005 24/22 A2997 RMK AO2 CIG 004V010 SLP139 T02390217
  • 091153Z AUTO 03005KT 10SM OVC005 23/22 A2996 RMK AO2 SLP135 70041 T02330217 10233 20228 53015

TAF KDAN
Valid from the 09 at 14:00 until the 10 at 12:00 UTC


091353Z 0914/1012 03007KT P6SM BKN012 OVC130
FM091500 03008G16KT P6SM BKN020 OVC140
FM091800 03009G17KT P6SM VCSH BKN035 BKN150
FM100500 36007KT P6SM SCT040 BKN150
KZDC FIR / North America



MET'MAP, your aeronautical weather chart ! - Copyright ORBIFLY December 2007 - Disclaimer

ORBIFLY MET'MAP TEAM :

Programming & Development : Alexandra Zaïnal
Concept & original design : Baudouin d'Aumeries
Assistance for programming : Marc-Olivier Méhu
Technical & hardware support : Manuel Goepfert

Contact : metmap@orbifly.com




SOURCES & CREDITS :

   NOAA       Earth
Advisory